Time;durP1;ratioP1;P1;durP2;ratioP2;P2;SDS_P1;SDS_P2;PMS_P1;PMS_P2;Temp;Humidity;BMP_temperature;BMP_pressure;BME280_temperature;BME280_humidity;BME280_pressure;Samples;Min_cycle;Max_cycle;Signal;HPM_P1;HPM_P2
2023/08/14 00:00:33;;;;;;;1999.90;999.90;;;17.40;99.90;;;;;;4989922;28;20434;-67
2023/08/14 00:03:01;;;;;;;1999.90;999.90;;;17.30;99.90;;;;;;4991901;28;20430;-66
2023/08/14 00:05:27;;;;;;;1999.90;999.90;;;17.20;99.90;;;;;;4990810;28;20470;-67
2023/08/14 00:07:54;;;;;;;1999.90;999.90;;;17.20;99.90;;;;;;4991302;28;21219;-67
2023/08/14 00:10:22;;;;;;;1999.90;999.90;;;17.10;99.90;;;;;;4990534;28;20441;-67
2023/08/14 00:12:49;;;;;;;1999.90;999.90;;;17.20;99.90;;;;;;4983871;28;20524;-66
2023/08/14 00:15:15;;;;;;;1999.90;999.90;;;17.10;99.90;;;;;;4990733;28;20445;-67
2023/08/14 00:17:42;;;;;;;1999.90;999.90;;;17.00;99.90;;;;;;4992003;28;20921;-67
2023/08/14 00:20:10;;;;;;;1999.90;999.90;;;17.00;99.90;;;;;;4986211;28;20857;-65
2023/08/14 00:22:36;;;;;;;1999.90;999.90;;;16.80;99.90;;;;;;4990400;28;20466;-67
2023/08/14 00:25:03;;;;;;;1999.90;999.90;;;16.50;99.90;;;;;;4991994;28;20442;-67
2023/08/14 00:27:31;;;;;;;1999.90;999.90;;;16.50;99.90;;;;;;4991650;28;20489;-66
2023/08/14 00:29:58;;;;;;;1999.90;999.90;;;16.30;99.90;;;;;;4990398;28;20434;-67
2023/08/14 00:32:25;;;;;;;1999.90;999.90;;;16.30;99.90;;;;;;4992098;28;20461;-67
2023/08/14 00:34:52;;;;;;;1999.90;999.90;;;16.30;99.90;;;;;;4991472;28;20430;-68
2023/08/14 00:37:18;;;;;;;1999.90;999.90;;;16.20;99.90;;;;;;4992249;28;20438;-66
2023/08/14 00:39:45;;;;;;;1999.90;999.90;;;16.20;99.90;;;;;;4990485;28;20442;-67
2023/08/14 00:42:12;;;;;;;1999.90;999.90;;;16.30;99.90;;;;;;4991621;28;20438;-67
2023/08/14 00:44:40;;;;;;;1999.90;999.90;;;16.40;99.90;;;;;;4990261;28;20914;-67
2023/08/14 00:47:07;;;;;;;1999.90;999.90;;;16.40;99.90;;;;;;4990940;28;20446;-67
2023/08/14 00:49:35;;;;;;;1999.90;999.90;;;16.50;99.90;;;;;;4991044;28;20928;-67
2023/08/14 00:52:02;;;;;;;1999.90;999.90;;;16.40;99.90;;;;;;4989849;28;20805;-65
2023/08/14 00:54:28;;;;;;;1999.90;999.90;;;16.30;99.90;;;;;;4991274;28;20475;-65
2023/08/14 00:56:55;;;;;;;1999.90;999.90;;;16.20;99.90;;;;;;4992300;28;20438;-66
2023/08/14 00:59:22;;;;;;;1999.90;999.90;;;16.10;99.90;;;;;;4990973;28;20438;-67
2023/08/14 01:01:50;;;;;;;1999.90;999.90;;;15.90;99.90;;;;;;4990421;28;20441;-67
2023/08/14 01:04:16;;;;;;;1999.90;999.90;;;16.10;99.90;;;;;;4992084;28;20449;-66
2023/08/14 01:06:43;;;;;;;1999.90;999.90;;;16.10;99.90;;;;;;4990991;28;21082;-67
2023/08/14 01:09:11;;;;;;;1999.90;999.90;;;16.30;99.90;;;;;;4990290;28;20438;-67
2023/08/14 01:11:44;;;;;;;1999.90;999.90;;;16.00;99.90;;;;;;4988890;28;20439;-67
2023/08/14 01:14:18;;;;;;;1999.90;999.90;;;16.20;99.90;;;;;;4990565;28;20442;-67
2023/08/14 01:16:50;;;;;;;1999.90;999.90;;;16.30;99.90;;;;;;4990337;28;20845;-67
2023/08/14 01:19:25;;;;;;;1999.90;999.90;;;16.10;99.90;;;;;;4989847;28;20438;-65
2023/08/14 01:22:04;;;;;;;1999.90;999.90;;;16.00;99.90;;;;;;4990578;28;20933;-67
2023/08/14 01:24:46;;;;;;;1999.90;999.90;;;16.10;99.90;;;;;;4990635;28;20484;-65
2023/08/14 01:27:15;;;;;;;1999.90;999.90;;;16.20;99.90;;;;;;4991202;28;20441;-68
2023/08/14 01:29:42;;;;;;;1999.90;999.90;;;16.40;99.90;;;;;;4989109;28;20474;-67
2023/08/14 01:32:09;;;;;;;1999.90;999.90;;;16.40;99.90;;;;;;4989844;28;20475;-67
2023/08/14 01:34:36;;;;;;;1999.90;999.90;;;16.60;99.90;;;;;;4990224;28;20442;-68
2023/08/14 01:37:13;;;;;;;1999.90;999.90;;;16.70;99.90;;;;;;4990037;28;20441;-67
2023/08/14 01:39:44;;;;;;;1999.90;999.90;;;16.80;99.90;;;;;;4989079;28;20434;-66
2023/08/14 01:42:22;;;;;;;1999.90;999.90;;;16.80;99.90;;;;;;4987312;28;20431;-65
2023/08/14 01:44:53;;;;;;;1999.90;999.90;;;16.90;99.90;;;;;;4988318;28;20430;-67
2023/08/14 01:47:21;;;;;;;1999.90;999.90;;;16.80;99.90;;;;;;4986256;28;20434;-67
2023/08/14 01:49:48;;;;;;;1999.90;999.90;;;16.80;99.90;;;;;;4988969;28;20442;-66
2023/08/14 01:52:15;;;;;;;1999.90;999.90;;;16.70;99.90;;;;;;4987777;28;20944;-65
2023/08/14 01:54:42;;;;;;;1999.90;999.90;;;16.70;99.90;;;;;;4987712;28;20435;-67
2023/08/14 01:57:08;;;;;;;1999.90;999.90;;;16.70;99.90;;;;;;4987903;28;20520;-66
2023/08/14 01:59:42;;;;;;;1999.90;999.90;;;16.70;99.90;;;;;;4988641;28;20438;-66
2023/08/14 02:02:10;;;;;;;1999.90;999.90;;;16.60;99.90;;;;;;4989297;28;20802;-67
2023/08/14 02:04:36;;;;;;;1999.90;999.90;;;16.60;99.90;;;;;;4988401;28;20434;-67
2023/08/14 02:07:05;;;;;;;1999.90;999.90;;;16.50;99.90;;;;;;4988678;28;20438;-67
2023/08/14 02:09:32;;;;;;;1999.90;999.90;;;16.70;99.90;;;;;;4990095;28;20430;-67
2023/08/14 02:11:59;;;;;;;1999.90;999.90;;;16.50;99.90;;;;;;4984488;28;20439;-67
2023/08/14 02:14:26;;;;;;;1999.90;999.90;;;16.30;99.90;;;;;;4989869;28;20933;-65
2023/08/14 02:16:54;;;;;;;1999.90;999.90;;;16.10;99.90;;;;;;4989481;28;20438;-67
2023/08/14 02:19:21;;;;;;;1999.90;999.90;;;16.00;99.90;;;;;;4984272;28;20446;-67
2023/08/14 02:21:48;;;;;;;1999.90;999.90;;;16.10;99.90;;;;;;4984865;28;20436;-67
2023/08/14 02:24:15;;;;;;;1999.90;999.90;;;16.20;99.90;;;;;;4988978;28;20434;-67
2023/08/14 02:26:42;;;;;;;1999.90;999.90;;;16.30;99.90;;;;;;4988966;28;20430;-67
2023/08/14 02:29:09;;;;;;;1999.90;999.90;;;16.20;99.90;;;;;;4989562;28;20445;-67
2023/08/14 02:31:36;;;;;;;1999.90;999.90;;;16.40;99.90;;;;;;4989175;28;20434;-67
2023/08/14 02:34:04;;;;;;;1999.90;999.90;;;16.50;99.90;;;;;;4987960;28;20434;-67
2023/08/14 02:36:31;;;;;;;1999.90;999.90;;;16.50;99.90;;;;;;4989424;28;20437;-66
2023/08/14 02:38:57;;;;;;;1999.90;999.90;;;16.50;99.90;;;;;;4988612;28;20441;-66
2023/08/14 02:41:24;;;;;;;1999.90;999.90;;;16.60;99.90;;;;;;4989135;28;20437;-67
2023/08/14 02:43:51;;;;;;;1999.90;999.90;;;16.60;99.90;;;;;;4989881;28;20848;-65
2023/08/14 02:46:17;;;;;;;1999.90;999.90;;;16.70;99.90;;;;;;4988767;28;20434;-67
2023/08/14 02:48:45;;;;;;;1999.90;999.90;;;16.50;99.90;;;;;;4990061;28;20438;-65
2023/08/14 02:51:15;;;;;;;1999.90;999.90;;;16.60;99.90;;;;;;4986659;28;20878;-67
2023/08/14 02:53:41;;;;;;;1999.90;999.90;;;16.50;99.90;;;;;;4990073;28;20437;-67
2023/08/14 02:56:08;;;;;;;1999.90;999.90;;;16.60;99.90;;;;;;4988212;28;20810;-67
2023/08/14 02:58:35;;;;;;;1999.90;999.90;;;16.80;99.90;;;;;;4989678;28;20438;-67
2023/08/14 03:01:04;;;;;;;1999.90;999.90;;;17.00;99.90;;;;;;4987700;28;20440;-67
2023/08/14 03:03:30;;;;;;;1999.90;999.90;;;17.00;99.90;;;;;;4989522;28;20438;-67
2023/08/14 03:05:59;;;;;;;1999.90;999.90;;;16.80;99.90;;;;;;4989810;28;20441;-67
2023/08/14 03:08:27;;;;;;;1999.90;999.90;;;16.90;99.90;;;;;;4981168;28;20466;-67
2023/08/14 03:10:54;;;;;;;1999.90;999.90;;;16.90;99.90;;;;;;4987347;28;20477;-67
2023/08/14 03:13:20;;;;;;;1999.90;999.90;;;17.00;99.90;;;;;;4987003;28;20438;-67
2023/08/14 03:15:47;;;;;;;1999.90;999.90;;;17.10;99.90;;;;;;4986505;28;20430;-67
2023/08/14 03:18:14;;;;;;;1999.90;999.90;;;17.20;99.90;;;;;;4988440;28;20501;-65
2023/08/14 03:20:40;;;;;;;1999.90;999.90;;;17.40;99.90;;;;;;4988759;28;20438;-67
2023/08/14 03:23:07;;;;;;;1999.90;999.90;;;17.40;99.90;;;;;;4984877;28;20428;-65
2023/08/14 03:25:35;;;;;;;1999.90;999.90;;;17.50;99.90;;;;;;4987713;28;20904;-67
2023/08/14 03:28:02;;;;;;;1999.90;999.90;;;17.60;99.90;;;;;;4988414;28;20433;-67
2023/08/14 03:30:28;;;;;;;1999.90;999.90;;;17.60;99.90;;;;;;4980882;28;20457;-67
2023/08/14 03:32:55;;;;;;;1999.90;999.90;;;17.60;99.90;;;;;;4988669;28;20438;-67
2023/08/14 03:35:22;;;;;;;1999.90;999.90;;;17.50;99.90;;;;;;4987857;28;20434;-67
2023/08/14 03:37:48;;;;;;;1999.90;999.90;;;17.40;99.90;;;;;;4987622;28;20445;-68
2023/08/14 03:40:15;;;;;;;1999.90;999.90;;;17.30;99.90;;;;;;4987798;28;20441;-65
2023/08/14 03:42:43;;;;;;;1999.90;999.90;;;17.10;99.90;;;;;;4989269;28;20438;-67
2023/08/14 03:45:10;;;;;;;1999.90;999.90;;;17.10;99.90;;;;;;4992055;28;20456;-66
2023/08/14 03:47:37;;;;;;;1999.90;999.90;;;17.00;99.90;;;;;;4991625;28;20445;-67
2023/08/14 03:50:05;;;;;;;1999.90;999.90;;;17.00;99.90;;;;;;4991972;28;20441;-66
2023/08/14 03:52:31;;;;;;;1999.90;999.90;;;17.00;99.90;;;;;;4984531;28;20486;-67
2023/08/14 03:54:58;;;;;;;1999.90;999.90;;;17.00;99.90;;;;;;4992439;28;20441;-67
2023/08/14 03:57:25;;;;;;;1999.90;999.90;;;17.00;99.90;;;;;;4992338;28;20442;-67
2023/08/14 03:59:53;;;;;;;1999.90;999.90;;;16.90;99.90;;;;;;4990461;28;20441;-66
2023/08/14 04:02:20;;;;;;;1999.90;999.90;;;16.70;99.90;;;;;;4990927;28;20829;-68
2023/08/14 04:04:46;;;;;;;1999.90;999.90;;;16.50;99.90;;;;;;4991727;28;20434;-67
2023/08/14 04:07:13;;;;;;;1999.90;999.90;;;16.60;99.90;;;;;;4992039;28;20427;-67
2023/08/14 04:09:40;;;;;;;1999.90;999.90;;;16.60;99.90;;;;;;4992172;28;20937;-66
2023/08/14 04:12:07;;;;;;;1999.90;999.90;;;16.70;99.90;;;;;;4989274;28;20926;-65
2023/08/14 04:14:34;;;;;;;1999.90;999.90;;;16.80;99.90;;;;;;4992191;28;20440;-67
2023/08/14 04:17:02;;;;;;;1999.90;999.90;;;16.80;99.90;;;;;;4991787;28;20442;-67
2023/08/14 04:19:29;;;;;;;1999.90;999.90;;;16.90;99.90;;;;;;4991537;28;20438;-65
2023/08/14 04:21:56;;;;;;;1999.90;999.90;;;16.90;99.90;;;;;;4990717;28;20464;-65
2023/08/14 04:24:22;;;;;;;1999.90;999.90;;;16.90;99.90;;;;;;4990613;28;20443;-67
2023/08/14 04:26:49;;;;;;;1999.90;999.90;;;16.90;99.90;;;;;;4991718;28;20436;-67
2023/08/14 04:29:16;;;;;;;1999.90;999.90;;;16.80;99.90;;;;;;4991945;28;20513;-67
2023/08/14 04:31:43;;;;;;;1999.90;999.90;;;16.80;99.90;;;;;;4991232;28;20458;-67
2023/08/14 04:34:11;;;;;;;1999.90;999.90;;;16.90;99.90;;;;;;4988913;28;20823;-65
2023/08/14 04:36:38;;;;;;;1999.90;999.90;;;17.00;99.90;;;;;;4988130;28;20449;-66
2023/08/14 04:39:05;;;;;;;1999.90;999.90;;;17.00;99.90;;;;;;4988186;28;20438;-67
2023/08/14 04:41:32;;;;;;;1999.90;999.90;;;17.10;99.90;;;;;;4988908;28;20430;-66
2023/08/14 04:43:58;;;;;;;1999.90;999.90;;;17.20;99.90;;;;;;4987767;28;20508;-67
2023/08/14 04:46:30;;;;;;;1999.90;999.90;;;17.40;99.90;;;;;;4984498;28;20937;-66
2023/08/14 04:48:57;;;;;;;1999.90;999.90;;;17.60;99.90;;;;;;4988661;28;20469;-65
2023/08/14 04:51:25;;;;;;;1999.90;999.90;;;17.70;99.90;;;;;;4988307;28;20443;-66
2023/08/14 04:53:52;;;;;;;1999.90;999.90;;;17.80;99.90;;;;;;4988927;28;20592;-67
2023/08/14 04:56:19;;;;;;;1999.90;999.90;;;18.00;99.90;;;;;;4987372;28;20809;-67
2023/08/14 04:58:46;;;;;;;1999.90;999.90;;;18.10;99.90;;;;;;4988613;28;20445;-67
2023/08/14 05:01:13;;;;;;;1999.90;999.90;;;18.10;99.90;;;;;;4986230;28;20503;-66
2023/08/14 05:03:40;;;;;;;1999.90;999.90;;;18.20;99.90;;;;;;4988242;28;20442;-66
2023/08/14 05:06:07;;;;;;;1999.90;999.90;;;18.20;99.90;;;;;;4988570;28;20439;-67
2023/08/14 05:08:35;;;;;;;1999.90;999.90;;;18.20;99.90;;;;;;4988823;28;20438;-67
2023/08/14 05:11:01;;;;;;;1999.90;999.90;;;18.10;99.90;;;;;;4987452;28;20441;-66
2023/08/14 05:13:28;;;;;;;1999.90;999.90;;;18.20;99.90;;;;;;4984324;28;20450;-67
2023/08/14 05:15:56;;;;;;;1999.90;999.90;;;18.40;99.90;;;;;;4988324;28;20437;-66
2023/08/14 05:18:23;;;;;;;1999.90;999.90;;;18.60;99.90;;;;;;4988929;28;20531;-67
2023/08/14 05:20:50;;;;;;;1999.90;999.90;;;19.10;99.90;;;;;;4987764;28;20908;-67
2023/08/14 05:23:17;;;;;;;1999.90;999.90;;;19.40;99.90;;;;;;4987310;28;20465;-67
2023/08/14 05:25:46;;;;;;;1999.90;999.90;;;19.50;99.90;;;;;;4987423;28;20434;-66
2023/08/14 05:28:13;;;;;;;1999.90;999.90;;;19.40;99.90;;;;;;4988524;28;20449;-67
2023/08/14 05:30:43;;;;;;;1999.90;999.90;;;19.00;99.90;;;;;;4982992;28;20442;-67
2023/08/14 05:33:10;;;;;;;1999.90;999.90;;;19.00;99.90;;;;;;4988781;28;20532;-66
2023/08/14 05:35:36;;;;;;;1999.90;999.90;;;19.10;99.90;;;;;;4986133;28;20441;-67
2023/08/14 05:38:03;;;;;;;1999.90;999.90;;;19.30;99.90;;;;;;4987501;28;20442;-67
2023/08/14 05:40:30;;;;;;;1999.90;999.90;;;19.60;99.90;;;;;;4987334;28;20434;-66
2023/08/14 05:43:06;;;;;;;1999.90;999.90;;;19.60;99.90;;;;;;4986243;28;20430;-65
2023/08/14 05:45:32;;;;;;;1999.90;999.90;;;19.70;99.90;;;;;;4986536;28;20438;-68
2023/08/14 05:47:59;;;;;;;1999.90;999.90;;;19.80;99.90;;;;;;4987526;28;20441;-64
2023/08/14 05:50:27;;;;;;;1999.90;999.90;;;19.80;99.90;;;;;;4986656;28;20450;-67
2023/08/14 05:52:55;;;;;;;1999.90;999.90;;;19.80;99.90;;;;;;4986599;28;20508;-67
2023/08/14 05:55:22;;;;;;;1999.90;999.90;;;19.80;99.90;;;;;;4986861;28;20469;-66
2023/08/14 05:57:48;;;;;;;1999.90;999.90;;;19.80;99.90;;;;;;4988020;28;22346;-67
2023/08/14 06:00:17;;;;;;;1999.90;999.90;;;19.90;99.90;;;;;;4987243;28;20495;-67
2023/08/14 06:02:44;;;;;;;1999.90;999.90;;;20.00;99.90;;;;;;4986291;28;20434;-67
2023/08/14 06:05:11;;;;;;;1999.90;999.90;;;20.10;99.90;;;;;;4986881;28;20442;-65
2023/08/14 06:07:38;;;;;;;1999.90;999.90;;;20.30;99.90;;;;;;4984617;28;20478;-65
2023/08/14 06:10:05;;;;;;;1999.90;999.90;;;20.40;99.90;;;;;;4986854;28;20473;-67
2023/08/14 06:12:32;;;;;;;1999.90;999.90;;;20.70;99.90;;;;;;4985614;28;20447;-68
2023/08/14 06:14:59;;;;;;;1999.90;999.90;;;20.40;99.90;;;;;;4987327;28;20434;-68
2023/08/14 06:17:27;;;;;;;1999.90;999.90;;;20.60;99.90;;;;;;4989521;28;20446;-67
2023/08/14 06:19:53;;;;;;;1999.90;999.90;;;20.80;99.90;;;;;;4989849;28;20925;-68
2023/08/14 06:22:21;;;;;;;1999.90;999.90;;;21.20;99.90;;;;;;4986214;28;20913;-68
2023/08/14 06:24:47;;;;;;;1999.90;999.90;;;21.60;99.90;;;;;;4989570;28;20802;-66
2023/08/14 06:27:14;;;;;;;1999.90;999.90;;;21.90;99.90;;;;;;4988251;28;20430;-67
2023/08/14 06:29:41;;;;;;;1999.90;999.90;;;22.20;99.90;;;;;;4989455;28;20438;-66
2023/08/14 06:32:07;;;;;;;1999.90;999.90;;;22.60;99.90;;;;;;4989615;28;20438;-65
2023/08/14 06:34:35;;;;;;;1999.90;999.90;;;22.90;99.90;;;;;;4988527;28;20438;-67
2023/08/14 06:37:02;;;;;;;1999.90;999.90;;;23.10;99.90;;;;;;4988819;28;20443;-67
2023/08/14 06:39:29;;;;;;;1999.90;999.90;;;23.20;99.90;;;;;;4988923;28;20438;-64
2023/08/14 06:41:55;;;;;;;1999.90;999.90;;;23.30;99.90;;;;;;4989194;28;20434;-67
2023/08/14 06:44:22;;;;;;;1999.90;999.90;;;23.30;99.90;;;;;;4989891;28;20984;-67
2023/08/14 06:46:49;;;;;;;1999.90;999.90;;;23.30;99.90;;;;;;4987885;28;20438;-67
2023/08/14 06:49:16;;;;;;;1999.90;999.90;;;23.40;99.90;;;;;;4989508;28;20430;-67
2023/08/14 06:51:44;;;;;;;1999.90;999.90;;;23.40;99.90;;;;;;4987763;28;20442;-67
2023/08/14 06:54:10;;;;;;;1999.90;999.90;;;23.60;99.90;;;;;;4989467;28;20434;-67
2023/08/14 06:56:37;;;;;;;1999.90;999.90;;;23.80;99.90;;;;;;4988201;28;20437;-65
2023/08/14 06:59:04;;;;;;;1999.90;999.90;;;23.90;99.90;;;;;;4989404;28;20830;-67
2023/08/14 07:01:31;;;;;;;1999.90;999.90;;;24.10;99.90;;;;;;4988221;28;20438;-66
2023/08/14 07:03:57;;;;;;;1999.90;999.90;;;24.10;99.90;;;;;;4988927;28;20434;-65
2023/08/14 07:06:24;;;;;;;1999.90;999.90;;;24.10;99.90;;;;;;4990381;28;20434;-65
2023/08/14 07:08:52;;;;;;;1999.90;999.90;;;24.30;99.90;;;;;;4990299;28;20421;-67
2023/08/14 07:11:19;;;;;;;1999.90;999.90;;;24.50;99.90;;;;;;4990183;28;20425;-67
2023/08/14 07:13:45;;;;;;;1999.90;999.90;;;24.70;99.90;;;;;;4989437;28;20479;-65
2023/08/14 07:16:12;;;;;;;1999.90;999.90;;;24.80;99.90;;;;;;4990418;28;20410;-67
2023/08/14 07:18:39;;;;;;;1999.90;999.90;;;24.90;99.90;;;;;;4989246;28;20438;-67
2023/08/14 07:21:06;;;;;;;1999.90;999.90;;;25.10;99.90;;;;;;4989760;28;20946;-66
2023/08/14 07:23:32;;;;;;;1999.90;999.90;;;25.40;99.90;;;;;;4985962;28;20442;-66
2023/08/14 07:26:03;;;;;;;1999.90;999.90;;;25.60;99.90;;;;;;4990229;28;20434;-64
2023/08/14 07:28:30;;;;;;;1999.90;999.90;;;25.60;99.90;;;;;;4991681;28;20438;-65
2023/08/14 07:30:57;;;;;;;1999.90;999.90;;;25.60;99.90;;;;;;4991624;28;20465;-65
2023/08/14 07:33:24;;;;;;;1999.90;999.90;;;25.70;99.90;;;;;;4992351;28;20427;-67
2023/08/14 07:35:50;;;;;;;1999.90;999.90;;;25.90;99.90;;;;;;4991081;28;20434;-65
2023/08/14 07:38:17;;;;;;;1999.90;999.90;;;25.90;99.90;;;;;;4991649;28;20937;-66
2023/08/14 07:40:44;;;;;;;1999.90;999.90;;;26.10;99.90;;;;;;4989895;28;20434;-66
2023/08/14 07:43:12;;;;;;;1999.90;999.90;;;26.00;99.90;;;;;;4987749;28;20445;-67
2023/08/14 07:45:38;;;;;;;1999.90;999.90;;;25.90;99.90;;;;;;4989535;28;20917;-68
2023/08/14 07:48:05;;;;;;;1999.90;999.90;;;26.00;99.90;;;;;;4993416;28;20775;-66
2023/08/14 07:50:32;;;;;;;1999.90;999.90;;;26.20;99.90;;;;;;4992782;28;20438;-66
2023/08/14 07:52:59;;;;;;;1999.90;999.90;;;26.20;99.90;;;;;;4989478;28;20420;-67
2023/08/14 07:55:26;;;;;;;1999.90;999.90;;;26.50;99.90;;;;;;4974173;28;20792;-67
2023/08/14 07:57:52;;;;;;;1999.90;999.90;;;26.60;99.90;;;;;;4974070;28;20416;-66
2023/08/14 08:00:21;;;;;;;1999.90;999.90;;;26.60;99.90;;;;;;4983296;28;20440;-66
2023/08/14 08:02:48;;;;;;;1999.90;999.90;;;26.60;99.90;;;;;;4989126;28;20470;-68
2023/08/14 08:05:15;;;;;;;1999.90;999.90;;;26.70;99.90;;;;;;4988684;28;20438;-67
2023/08/14 08:07:41;;;;;;;1999.90;999.90;;;26.90;99.90;;;;;;4990267;28;20522;-65
2023/08/14 08:10:08;;;;;;;1999.90;999.90;;;27.00;99.90;;;;;;4988452;28;20434;-68
2023/08/14 08:12:35;;;;;;;1999.90;999.90;;;26.70;99.90;;;;;;4985559;28;20805;-66
2023/08/14 08:15:02;;;;;;;1999.90;999.90;;;26.50;99.90;;;;;;4991306;28;20434;-66
2023/08/14 08:17:30;;;;;;;1999.90;999.90;;;26.20;99.90;;;;;;4991616;28;20441;-67
2023/08/14 08:19:56;;;;;;;1999.90;999.90;;;26.10;99.90;;;;;;4991120;28;20929;-66
2023/08/14 08:22:23;;;;;;;1999.90;999.90;;;25.90;99.90;;;;;;4990778;28;20438;-67
2023/08/14 08:24:50;;;;;;;1999.90;999.90;;;25.70;99.90;;;;;;4991271;28;20442;-67
2023/08/14 08:27:16;;;;;;;1999.90;999.90;;;25.80;99.90;;;;;;4991319;28;20441;-65
2023/08/14 08:29:43;;;;;;;1999.90;999.90;;;26.00;99.90;;;;;;4990086;28;20938;-66
2023/08/14 08:32:10;;;;;;;1999.90;999.90;;;26.10;99.90;;;;;;4991277;28;20427;-67
2023/08/14 08:34:38;;;;;;;1999.90;999.90;;;26.30;99.90;;;;;;4994610;28;20426;-66
2023/08/14 08:37:06;;;;;;;1999.90;999.90;;;26.60;99.90;;;;;;4990563;28;20442;-66
2023/08/14 08:39:33;;;;;;;1999.90;999.90;;;26.80;99.90;;;;;;4991305;28;20438;-66
2023/08/14 08:42:00;;;;;;;1999.90;999.90;;;27.00;99.90;;;;;;4989158;28;20442;-67
2023/08/14 08:44:32;;;;;;;1999.90;999.90;;;27.30;99.90;;;;;;4989254;28;20925;-66
2023/08/14 08:47:03;;;;;;;1999.90;999.90;;;27.60;99.90;;;;;;4993771;23;21713;-67
2023/08/14 08:49:30;;;;;;;1999.90;999.90;;;27.60;99.90;;;;;;4990526;28;20442;-66
2023/08/14 08:51:59;;;;;;;1999.90;999.90;;;27.50;99.90;;;;;;4997291;28;20438;-67
2023/08/14 08:54:26;;;;;;;1999.90;999.90;;;27.50;99.90;;;;;;5001692;28;21086;-67
2023/08/14 08:56:56;;;;;;;1999.90;999.90;;;27.30;99.90;;;;;;4995086;28;20434;-67
2023/08/14 08:59:23;;;;;;;1999.90;999.90;;;27.50;99.90;;;;;;4991801;28;20435;-67
2023/08/14 09:01:50;;;;;;;1999.90;999.90;;;27.50;99.90;;;;;;5004271;28;20437;-67
2023/08/14 09:04:17;;;;;;;1999.90;999.90;;;27.50;99.90;;;;;;4987654;28;20430;-67
2023/08/14 09:06:44;;;;;;;1999.90;999.90;;;27.60;99.90;;;;;;4997868;28;20433;-67
2023/08/14 09:09:14;;;;;;;1999.90;999.90;;;27.70;99.90;;;;;;4991817;28;20445;-67
2023/08/14 09:11:40;;;;;;;1999.90;999.90;;;28.10;99.90;;;;;;5004243;28;20441;-67
2023/08/14 09:14:07;;;;;;;1999.90;999.90;;;28.30;99.90;;;;;;4992094;28;20434;-67
2023/08/14 09:16:34;;;;;;;1999.90;999.90;;;28.00;99.90;;;;;;4999848;28;20428;-67
2023/08/14 09:19:01;;;;;;;1999.90;999.90;;;27.80;99.90;;;;;;4990950;28;20437;-67
2023/08/14 09:21:29;;;;;;;1999.90;999.90;;;28.00;99.90;;;;;;4994255;28;20439;-68
2023/08/14 09:23:56;;;;;;;1999.90;999.90;;;27.80;99.90;;;;;;4992147;28;20442;-67
2023/08/14 09:26:24;;;;;;;1999.90;999.90;;;27.90;99.90;;;;;;5002323;28;20432;-67
2023/08/14 09:28:51;;;;;;;1999.90;999.90;;;28.20;99.90;;;;;;4988833;28;20434;-67
2023/08/14 09:31:18;;;;;;;1999.90;999.90;;;28.30;99.90;;;;;;4994219;28;20438;-67
2023/08/14 09:33:46;;;;;;;1999.90;999.90;;;28.50;99.90;;;;;;4997729;28;20465;-68
2023/08/14 09:36:13;;;;;;;1999.90;999.90;;;28.40;99.90;;;;;;4996312;28;20442;-67
2023/08/14 09:38:40;;;;;;;1999.90;999.90;;;28.40;99.90;;;;;;4992494;28;20428;-68
2023/08/14 09:41:07;;;;;;;1999.90;999.90;;;28.60;99.90;;;;;;4999274;28;20438;-67
2023/08/14 09:43:36;;;;;;;1999.90;999.90;;;28.50;99.90;;;;;;4990259;28;20438;-67
2023/08/14 09:46:03;;;;;;;1999.90;999.90;;;28.50;99.90;;;;;;4990895;28;20438;-67
2023/08/14 09:48:41;;;;;;;1999.90;999.90;;;28.50;99.90;;;;;;4993294;28;20525;-68
2023/08/14 09:51:12;;;;;;;1999.90;999.90;;;29.00;99.90;;;;;;4986447;28;20989;-68
2023/08/14 09:53:47;;;;;;;1999.90;999.90;;;29.00;99.90;;;;;;5006140;28;20921;-67
2023/08/14 09:56:14;;;;;;;1999.90;999.90;;;29.30;99.90;;;;;;4993928;28;20441;-67
2023/08/14 09:58:42;;;;;;;1999.90;999.90;;;29.80;99.90;;;;;;4997985;28;20433;-67
2023/08/14 10:01:12;;;;;;;1999.90;999.90;;;29.70;99.90;;;;;;4988766;28;20434;-67
2023/08/14 10:03:41;;;;;;;1999.90;999.90;;;29.60;99.90;;;;;;4993005;28;20438;-68
2023/08/14 10:06:08;;;;;;;1999.90;999.90;;;30.00;99.90;;;;;;4994951;28;20466;-66
2023/08/14 10:08:35;;;;;;;1999.90;999.90;;;30.00;99.90;;;;;;4991223;28;20449;-68
2023/08/14 10:11:03;;;;;;;1999.90;999.90;;;30.40;99.90;;;;;;4994730;28;20431;-67
2023/08/14 10:13:32;;;;;;;1999.90;999.90;;;30.10;99.90;;;;;;4999631;28;20498;-66
2023/08/14 10:16:03;;;;;;;1999.90;999.90;;;30.30;99.90;;;;;;4991980;28;20429;-67
2023/08/14 10:18:31;;;;;;;1999.90;999.90;;;30.50;99.50;;;;;;4991306;28;20791;-67
2023/08/14 10:21:01;;;;;;;1999.90;999.90;;;30.40;99.60;;;;;;4990109;28;20846;-67
2023/08/14 10:23:29;;;;;;;1999.90;999.90;;;30.70;99.60;;;;;;4993378;28;20436;-68
2023/08/14 10:25:56;;;;;;;1999.90;999.90;;;31.00;99.00;;;;;;4991487;28;20418;-68
2023/08/14 10:28:23;;;;;;;1999.90;999.90;;;31.40;98.70;;;;;;4991053;28;20426;-67
2023/08/14 10:30:51;;;;;;;1999.90;999.90;;;31.60;97.40;;;;;;4989303;28;20435;-68
2023/08/14 10:33:20;;;;;;;1999.90;999.90;;;31.70;97.40;;;;;;4991986;28;20436;-69
2023/08/14 10:35:53;;;;;;;1999.90;999.90;;;31.70;97.00;;;;;;4990899;28;20422;-67
2023/08/14 10:38:20;;;;;;;1999.90;999.90;;;31.50;97.80;;;;;;4990840;28;20902;-69
2023/08/14 10:40:54;;;;;;;1999.90;999.90;;;31.40;98.40;;;;;;4989897;28;20434;-65
2023/08/14 10:43:25;;;;;;;1999.90;999.90;;;31.10;98.40;;;;;;4990751;28;20425;-68
2023/08/14 10:45:53;;;;;;;1999.90;999.90;;;30.50;99.30;;;;;;4990840;28;20465;-68
2023/08/14 10:48:21;;;;;;;1999.90;999.90;;;30.40;99.10;;;;;;4990940;28;20482;-68
2023/08/14 10:50:49;;;;;;;1999.90;999.90;;;30.70;99.60;;;;;;4989910;28;20631;-68
2023/08/14 10:53:16;;;;;;;1999.90;999.90;;;31.10;99.40;;;;;;4993071;28;20838;-67
2023/08/14 10:55:45;;;;;;;1999.90;999.90;;;31.30;99.00;;;;;;4992562;28;20416;-68
2023/08/14 10:58:41;;;;;;;1999.90;999.90;;;30.80;98.80;;;;;;4997933;28;20508;-67
2023/08/14 11:01:09;;;;;;;1999.90;999.90;;;30.00;99.90;;;;;;4997461;28;20434;-68
2023/08/14 11:03:56;;;;;;;1999.90;999.90;;;29.60;99.90;;;;;;4987780;28;20419;-68
2023/08/14 11:06:24;;;;;;;1999.90;999.90;;;29.10;99.90;;;;;;4975227;28;20804;-68
2023/08/14 11:08:58;;;;;;;1999.90;999.90;;;29.10;99.90;;;;;;4981124;28;20434;-68
2023/08/14 11:11:24;;;;;;;1999.90;999.90;;;29.70;99.90;;;;;;4994272;28;20422;-68
2023/08/14 11:13:53;;;;;;;1999.90;999.90;;;29.60;99.90;;;;;;4995477;28;20513;-68
2023/08/14 11:16:20;;;;;;;1999.90;999.90;;;29.60;99.90;;;;;;4992961;28;20470;-68
2023/08/14 11:18:49;;;;;;;1999.90;999.90;;;29.70;99.90;;;;;;4993651;28;20430;-68
2023/08/14 11:21:15;;;;;;;1999.90;999.90;;;30.00;99.90;;;;;;4986107;28;20422;-68
2023/08/14 11:23:42;;;;;;;1999.90;999.90;;;29.90;99.90;;;;;;4994352;28;20414;-68
2023/08/14 11:26:09;;;;;;;1999.90;999.90;;;30.10;99.90;;;;;;4994025;28;20420;-68
2023/08/14 11:28:36;;;;;;;1999.90;999.90;;;30.50;99.90;;;;;;4994756;28;20445;-68
2023/08/14 11:31:02;;;;;;;1999.90;999.90;;;30.50;99.90;;;;;;4995806;28;20439;-68
2023/08/14 11:33:31;;;;;;;1999.90;999.90;;;30.00;99.90;;;;;;4997526;28;20441;-68
2023/08/14 11:35:59;;;;;;;1999.90;999.90;;;29.50;99.90;;;;;;4993699;28;20418;-68
2023/08/14 11:38:26;;;;;;;1999.90;999.90;;;29.40;99.90;;;;;;4992860;28;22170;-67
2023/08/14 11:40:53;;;;;;;1999.90;999.90;;;29.20;99.90;;;;;;4992745;28;20442;-68
2023/08/14 11:43:20;;;;;;;1999.90;999.90;;;29.30;99.90;;;;;;4994023;28;20429;-68
2023/08/14 11:45:47;;;;;;;1999.90;999.90;;;29.90;99.90;;;;;;4993790;28;20414;-68
2023/08/14 11:48:14;;;;;;;1999.90;999.90;;;30.30;99.90;;;;;;4992139;28;20520;-68
2023/08/14 11:50:46;;;;;;;1999.90;999.90;;;30.60;99.90;;;;;;4995728;28;20438;-67
2023/08/14 11:53:14;;;;;;;1999.90;999.90;;;30.90;99.90;;;;;;4993620;28;20441;-68
2023/08/14 11:55:41;;;;;;;1999.90;999.90;;;30.80;99.90;;;;;;4992871;28;20941;-68
2023/08/14 11:58:08;;;;;;;1999.90;999.90;;;31.00;99.90;;;;;;5002196;28;21163;-69
2023/08/14 12:00:34;;;;;;;1999.90;999.90;;;30.90;99.90;;;;;;5000302;28;20423;-68